الصفحة الرئيسية
METAR-TAF:

METAR-TAF

مطار :

مطار بورتسودان

بورتسودان, السودان

دائرة عرض: 19-26N, خط طول: 037-14E, ارتفاع: 138 متر

METAR: مفقودة

زمن: 08:31 (06:31 UTC)

توقعات

تاريخ ووقت الإصدار 1ساعة و 31 دقيقة قبل الساعة 05:00UTC
التوقعات صالحة من01 الساعة 06 UTC إلى 02 الساعة 12 UTC
ريح 8 عقدة من الشمال الغربي
الرؤية 10 كم أو أكثر
الغيوم لا تقل 1500 م ولا وجود لمزنة ركامية السحاب الأسود
أصبح
من 01 الساعة 10 UTC إلى 01 الساعة 12 UTC
ريح 12 عقدة من الشمال الشرقي تتزايد حتى 22 عقدة

TAF: HSPN 010500Z 0106/0212 32008KT CAVOK BECMG 0110/0112 05012G22KT

أرصاد الطقس والتوقعات من أكثر من 4000 مطار (تقارير الطقس للمطار METAR والتنبؤ بالطقس بالمطارTAF).

المحطات المتاحة هي النقط الصفراء والحمراء على الخريطة.

حرك المؤشر فوق النقطة لمعرفة اسم المحطة.

ثم انقر لمعرفة أرصاد وتوقعات الطقس.

لتغيير الخارطة: اضغط على الأزرار الخضراء مع رمز الصليب الأسود للتكبير. على الزر الأخضر مع شرطة للتصغير، أو على الأسهم الخضراء للخرائط المجاورة.


METAR-TAF: